LiveFlight Tracker CSN454





Flight Info CSN454



Flight: CSN454 PIC: RONALD REAL
Departure: EHAM Arrival: ZSPD
Registration: B-2026 Aircraft: BOEING 777F
Current Alt: 0 FT GS: 0 KT
Last Info: 2017-12-09 18:30:51
Distance: 1 NM Status: Arrived


ACARS Info CSN454



Pilot Flight Time ALT GS Latitude Longitude
CSN792 CSN399 2017-12-07 11:54:52 0 0 40.6410767394671 -73.7761617983212
CSN792 CSN399 2017-12-07 11:53:01 0 6 40.6394678024068 -73.777795008877
CSN792 CSN399 2017-12-07 11:51:00 0 27 40.6271846368687 -73.7834123920522
CSN792 CSN399 2017-12-07 11:48:59 85 122 40.6434874446467 -73.7687903624384
CSN792 CSN399 2017-12-07 11:46:58 1460 128 40.7047054355649 -73.7245285879808
CSN792 CSN399 2017-12-07 11:44:57 2651 134 40.7692701417158 -73.6788674352644
CSN792 CSN399 2017-12-07 11:42:56 4295 157 40.8420212047571 -73.6269732336582
CSN792 CSN399 2017-12-07 11:40:55 4314 194 40.9122861818016 -73.5344125467489
CSN792 CSN399 2017-12-07 11:38:54 4314 220 41.0004187845722 -73.4389465733188
CSN792 CSN399 2017-12-07 11:36:53 5446 206 41.1071597105912 -73.4937759564617
CSN792 CSN399 2017-12-07 11:34:41 7943 253 41.2348466731295 -73.5433965750997
CSN792 CSN399 2017-12-07 11:32:40 8307 255 41.2497629672376 -73.547344630517
CSN792 CSN399 2017-12-07 11:30:39 8307 255 41.2497629672376 -73.547344630517
CSN792 CSN399 2017-12-07 11:28:38 8307 255 41.2497629672376 -73.547344630517
CSN792 CSN399 2017-12-07 11:26:37 8963 255 41.27684470781 -73.5544572078127
CSN792 CSN399 2017-12-07 11:24:36 12388 259 41.4190862350284 -73.5915573317222
CSN792 CSN399 2017-12-07 11:22:35 16014 294 41.5651022349896 -73.6311106504634
CSN792 CSN399 2017-12-07 11:20:34 20738 354 41.7498703289 -73.6815991029431
CSN792 CSN399 2017-12-07 11:18:33 25361 371 41.9487439624149 -73.7365126751357
CSN792 CSN399 2017-12-07 11:16:32 29961 391 42.1591131051222 -73.7940010225036
CSN792 CSN399 2017-12-07 11:14:31 34249 414 42.3783182528776 -73.8098581213341
CSN792 CSN399 2017-12-07 11:12:30 37001 424 42.613746897667 -73.8004001671165
CSN792 CSN399 2017-12-07 11:10:29 36998 437 42.8556695430314 -73.8218626938627
CSN792 CSN399 2017-12-07 11:08:28 36985 439 43.1000109379135 -73.8646204318848
CSN792 CSN399 2017-12-07 11:06:27 36965 441 43.3448143657018 -73.9081507247748
CSN792 CSN399 2017-12-07 11:04:26 36959 441 43.5905987247282 -73.9514036301746
CSN792 CSN399 2017-12-07 11:02:25 36932 441 43.8364754575008 -73.9927192152285
CSN792 CSN399 2017-12-07 11:00:24 36896 441 44.0818564378946 -74.0335892669486
CSN792 CSN399 2017-12-07 10:58:23 36873 441 44.3279781771295 -74.0739166165385
CSN792 CSN399 2017-12-07 10:56:22 36890 441 44.5743589318994 -74.1130300849996
CSN792 CSN399 2017-12-07 10:54:21 36916 447 44.821052605673 -74.1638722266861
CSN792 CSN399 2017-12-07 10:52:20 36913 445 45.0687088222213 -74.2202379878594
CSN792 CSN399 2017-12-07 10:50:19 36906 445 45.3164976567638 -74.267288485718
CSN792 CSN399 2017-12-07 10:48:18 36903 447 45.5645806661391 -74.3154289272661
CSN792 CSN399 2017-12-07 10:46:17 36900 445 45.8126319817178 -74.3667402432468
CSN792 CSN399 2017-12-07 10:44:16 36896 441 46.0601095012592 -74.3808769772162
CSN792 CSN399 2017-12-07 10:42:15 36886 441 46.3074660102902 -74.3882914489456
CSN792 CSN399 2017-12-07 10:40:14 36873 441 46.5549563548073 -74.3951383558781
CSN792 CSN399 2017-12-07 10:38:13 36857 443 46.8030567848761 -74.4010935179
CSN792 CSN399 2017-12-07 10:36:12 36837 443 47.0520228449714 -74.4095162844355
CSN792 CSN399 2017-12-07 10:34:11 36818 445 47.300940376492 -74.4160324219879
CSN792 CSN399 2017-12-07 10:32:10 36795 445 47.550588861745 -74.4225751876073
CSN792 CSN399 2017-12-07 10:30:09 36775 445 47.8003701090523 -74.429180296236
CSN792 CSN399 2017-12-07 10:28:08 36759 445 48.0499448221952 -74.4358575758409
CSN792 CSN399 2017-12-07 10:26:07 36739 445 48.3000391490089 -74.4433372769998
CSN792 CSN399 2017-12-07 10:24:06 36699 447 48.5506228686883 -74.4511947600531
CSN792 CSN399 2017-12-07 10:22:05 36690 447 48.8015884318971 -74.458501001617
CSN792 CSN399 2017-12-07 10:20:04 36680 449 49.052695514685 -74.4659065565595
CSN792 CSN399 2017-12-07 10:18:03 36673 449 49.3046983602463 -74.4746024787739
CSN792 CSN399 2017-12-07 10:16:02 36667 449 49.5568982347366 -74.4831900462528
CSN792 CSN399 2017-12-07 10:14:01 36667 455 49.8091878999135 -74.49722428302
CSN792 CSN399 2017-12-07 10:12:00 36667 455 50.0627418592123 -74.5460581436987
CSN792 CSN399 2017-12-07 10:09:59 36670 457 50.3171380157071 -74.5954469643674
CSN792 CSN399 2017-12-07 10:07:58 36667 472 50.5745605877616 -74.6473318916855
CSN792 CSN399 2017-12-07 10:05:57 36663 488 50.7932737442025 -74.6913502284165
CSN792 CSN399 2017-12-07 10:03:56 36634 490 51.0653532007485 -74.7457730252516
CSN792 CSN399 2017-12-07 10:01:55 36614 490 51.3376424960891 -74.8004503340776
CSN792 CSN399 2017-12-07 09:59:54 36588 490 51.6107853915763 -74.8559187906201
CSN792 CSN399 2017-12-07 09:57:53 36562 492 51.8844410443061 -74.912272237489
CSN792 CSN399 2017-12-07 09:55:52 36535 494 52.158994315365 -74.9690778558959
CSN792 CSN399 2017-12-07 09:53:51 36522 494 52.4337002392123 -75.0248555747996
CSN792 CSN399 2017-12-07 09:51:50 36503 496 52.7093640149598 -75.0856714178591
CSN792 CSN399 2017-12-07 09:49:49 36486 498 52.9856516199931 -75.1474980613845
CSN792 CSN399 2017-12-07 09:47:48 36473 498 53.2622276975186 -75.2093712364477
CSN792 CSN399 2017-12-07 09:45:47 36463 500 53.5397858379132 -75.2717044986913
CSN792 CSN399 2017-12-07 09:43:46 36424 500 53.8178403873804 -75.3346953485677
CSN792 CSN399 2017-12-07 09:41:45 36421 498 54.0948408363256 -75.3968026547887
CSN792 CSN399 2017-12-07 09:39:44 36404 500 54.3723460252349 -75.4594282993488
CSN792 CSN399 2017-12-07 09:37:43 36391 500 54.6501320308369 -75.5221688487478
CSN792 CSN399 2017-12-07 09:35:42 36378 502 54.9279928937943 -75.590212852849
CSN792 CSN399 2017-12-07 09:33:41 36358 503 55.2079635995376 -75.6561241249426
CSN792 CSN399 2017-12-07 09:31:40 36355 503 55.4880949209312 -75.7260505118232
CSN792 CSN399 2017-12-07 09:29:39 36339 503 55.768225535347 -75.7994466238112
CSN792 CSN399 2017-12-07 09:27:38 36319 502 56.0469531900043 -75.8732897693917
CSN792 CSN399 2017-12-07 09:25:37 36293 502 56.3257661865276 -75.9477522568454
CSN792 CSN399 2017-12-07 09:23:36 36276 505 56.6057284517854 -76.0208675634301
CSN792 CSN399 2017-12-07 09:21:35 36276 505 56.8859537704435 -76.0920831587239
CSN792 CSN399 2017-12-07 09:19:34 36276 505 57.1664994200528 -76.1645243073911
CSN792 CSN399 2017-12-07 09:17:33 36276 503 57.4469682836906 -76.2382504121917
CSN792 CSN399 2017-12-07 09:15:32 36266 503 57.726542719539 -76.3133776056399
CSN792 CSN399 2017-12-07 09:13:31 36260 503 58.0065010637896 -76.3908928288106
CSN792 CSN399 2017-12-07 09:11:30 36257 503 58.2862050316871 -76.4709056904331
CSN792 CSN399 2017-12-07 09:09:29 36234 503 58.5649478816961 -76.553296041734
CSN792 CSN399 2017-12-07 09:07:28 36224 503 58.8436877669138 -76.6381734405511
CSN792 CSN399 2017-12-07 09:05:27 36207 503 59.1226770970241 -76.7214008469164
CSN792 CSN399 2017-12-07 09:03:26 36188 502 59.4016485504786 -76.8029862414678
CSN792 CSN399 2017-12-07 09:01:25 36171 502 59.6797904982176 -76.8874999878348
CSN792 CSN399 2017-12-07 08:59:24 36168 502 59.9574933391443 -76.9802310848265
CSN792 CSN399 2017-12-07 08:57:23 36168 500 60.2302327232254 -77.1159312728232
CSN792 CSN399 2017-12-07 08:55:22 36985 472 84.4560733414975 -171.309657691706
CSN792 CSN399 2017-12-07 08:53:21 36985 472 84.4560733414975 -171.309657691706
CSN792 CSN399 2017-12-07 08:51:20 36985 472 84.4560733414975 -171.309657691706
CSN792 CSN399 2017-12-07 08:49:19 36985 472 84.4560733414975 -171.309657691706
CSN792 CSN399 2017-12-07 08:47:18 36985 472 84.4560733414975 -171.309657691706
CSN792 CSN399 2017-12-07 08:45:17 36985 472 84.4560733414975 -171.309657691706
CSN792 CSN399 2017-12-07 08:43:16 36985 472 84.4560733414975 -171.309657691706
CSN792 CSN399 2017-12-07 08:41:15 36985 472 84.4560733414975 -171.309657691706
CSN792 CSN399 2017-12-07 08:39:14 36985 472 84.4560733414975 -171.309657691706
CSN792 CSN399 2017-12-07 08:37:13 36985 472 84.4560733414975 -171.309657691706
CSN792 CSN399 2017-12-07 08:35:12 36985 472 84.4560733414975 -171.309657691706
CSN792 CSN399 2017-12-07 08:33:11 36985 472 84.4560733414975 -171.309657691706
CSN792 CSN399 2017-12-07 08:31:10 36985 472 84.4560733414975 -171.309657691706
CSN792 CSN399 2017-12-07 08:29:09 36985 472 84.4560733414975 -171.309657691706
CSN792 CSN399 2017-12-07 08:27:08 36985 472 84.4560733414975 -171.309657691706
CSN792 CSN399 2017-12-07 08:25:07 36985 472 84.4560733414975 -171.309657691706
CSN792 CSN399 2017-12-07 08:23:06 36985 472 84.4560733414975 -171.309657691706
CSN792 CSN399 2017-12-07 08:21:05 36985 472 84.4560733414975 -171.309657691706
CSN792 CSN399 2017-12-07 08:19:04 36985 472 84.4560733414975 -171.309657691706
CSN792 CSN399 2017-12-07 08:17:03 36985 472 84.4560733414975 -171.309657691706
CSN792 CSN399 2017-12-07 08:15:02 36985 472 84.4560733414975 -171.309657691706
CSN792 CSN399 2017-12-07 08:13:01 36985 472 84.4560733414975 -171.309657691706
CSN792 CSN399 2017-12-07 08:11:00 36985 472 84.4560733414975 -171.309657691706
CSN792 CSN399 2017-12-07 08:08:59 36985 472 84.4560733414975 -171.309657691706
CSN792 CSN399 2017-12-07 08:06:58 36985 472 84.4560733414975 -171.309657691706
CSN792 CSN399 2017-12-07 08:04:57 36985 472 84.4560733414975 -171.309657691706
CSN792 CSN399 2017-12-07 08:02:56 36985 472 84.4560733414975 -171.309657691706
CSN792 CSN399 2017-12-07 08:00:55 36985 472 84.4560733414975 -171.309657691706
CSN792 CSN399 2017-12-07 07:58:54 36985 472 84.4560733414975 -171.309657691706
CSN792 CSN399 2017-12-07 07:56:53 36985 472 84.4560733414975 -171.309657691706
CSN792 CSN399 2017-12-07 07:54:52 36985 472 84.4560733414975 -171.309657691706
CSN792 CSN399 2017-12-07 07:52:51 36985 472 84.4560733414975 -171.309657691706
CSN792 CSN399 2017-12-07 07:50:50 36985 472 84.4560733414975 -171.309657691706
CSN792 CSN399 2017-12-07 07:48:49 36985 472 84.4560733414975 -171.309657691706
CSN792 CSN399 2017-12-07 07:46:48 36985 472 84.4560733414975 -171.309657691706
CSN792 CSN399 2017-12-07 07:44:47 36985 472 84.4560733414975 -171.309657691706
CSN792 CSN399 2017-12-07 07:42:46 36985 472 84.4560733414975 -171.309657691706
CSN792 CSN399 2017-12-07 07:40:45 36985 472 84.4560733414975 -171.309657691706
CSN792 CSN399 2017-12-07 07:38:44 36985 472 84.4560733414975 -171.309657691706
CSN792 CSN399 2017-12-07 07:36:43 36985 472 84.4560733414975 -171.309657691706
CSN792 CSN399 2017-12-07 07:34:42 36985 472 84.4560733414975 -171.309657691706
CSN792 CSN399 2017-12-07 07:32:41 36985 472 84.4560733414975 -171.309657691706
CSN792 CSN399 2017-12-07 07:30:40 36985 472 84.4560733414975 -171.309657691706
CSN792 CSN399 2017-12-07 07:28:39 36985 472 84.4560733414975 -171.309657691706
CSN792 CSN399 2017-12-07 07:26:38 36985 472 84.4560733414975 -171.309657691706
CSN792 CSN399 2017-12-07 07:24:37 36985 472 84.4560733414975 -171.309657691706
CSN792 CSN399 2017-12-07 07:22:36 36985 472 84.4560733414975 -171.309657691706
CSN792 CSN399 2017-12-07 07:20:35 36985 472 84.4560733414975 -171.309657691706
CSN792 CSN399 2017-12-07 07:18:34 36985 472 84.4560733414975 -171.309657691706
CSN792 CSN399 2017-12-07 07:16:33 36985 472 84.4560733414975 -171.309657691706
CSN792 CSN399 2017-12-07 07:14:32 36985 472 84.4560733414975 -171.309657691706
CSN792 CSN399 2017-12-07 07:12:31 36985 472 84.4560733414975 -171.309657691706
CSN792 CSN399 2017-12-07 07:10:30 36985 472 84.4560733414975 -171.309657691706
CSN792 CSN399 2017-12-07 07:08:29 36985 472 84.4560733414975 -171.309657691706
CSN792 CSN399 2017-12-07 07:06:28 36985 472 84.4560733414975 -171.309657691706
CSN792 CSN399 2017-12-07 07:04:27 36985 472 84.4560733414975 -171.309657691706
CSN792 CSN399 2017-12-07 07:02:26 36985 472 84.4560733414975 -171.309657691706
CSN792 CSN399 2017-12-07 07:00:25 36985 472 84.4560733414975 -171.309657691706
CSN792 CSN399 2017-12-07 06:58:24 36985 472 84.4560733414975 -171.309657691706
CSN792 CSN399 2017-12-07 06:56:23 36985 472 84.4560733414975 -171.309657691706
CSN792 CSN399 2017-12-07 06:54:22 36985 472 84.4560733414975 -171.309657691706
CSN792 CSN399 2017-12-07 06:52:21 36985 472 84.4560733414975 -171.309657691706
CSN792 CSN399 2017-12-07 06:50:20 36985 472 84.4560733414975 -171.309657691706
CSN792 CSN399 2017-12-07 06:48:19 36985 472 84.4560733414975 -171.309657691706
CSN792 CSN399 2017-12-07 06:46:18 36985 472 84.4560733414975 -171.309657691706
CSN792 CSN399 2017-12-07 06:44:17 36985 472 84.4560733414975 -171.309657691706
CSN792 CSN399 2017-12-07 06:42:16 36985 472 84.4560733414975 -171.309657691706
CSN792 CSN399 2017-12-07 06:40:15 36985 472 84.4560733414975 -171.309657691706
CSN792 CSN399 2017-12-07 06:38:14 36985 472 84.4560733414975 -171.309657691706
CSN792 CSN399 2017-12-07 06:36:13 36985 472 84.4560733414975 -171.309657691706
CSN792 CSN399 2017-12-07 06:34:12 36985 472 84.4560733414975 -171.309657691706
CSN792 CSN399 2017-12-07 06:32:11 36985 472 84.4560733414975 -171.309657691706
CSN792 CSN399 2017-12-07 06:30:10 36985 472 84.4560733414975 -171.309657691706
CSN792 CSN399 2017-12-07 06:28:06 36985 472 84.4560733414975 -171.309657691706
CSN792 CSN399 2017-12-07 06:26:05 36985 472 84.4560733414975 -171.309657691706
CSN792 CSN399 2017-12-07 06:24:04 36985 472 84.4560733414975 -171.309657691706
CSN792 CSN399 2017-12-07 06:22:03 36985 472 84.4560733414975 -171.309657691706
CSN792 CSN399 2017-12-07 06:20:02 36985 472 84.4560733414975 -171.309657691706
CSN792 CSN399 2017-12-07 06:18:01 36985 472 84.4560733414975 -171.309657691706
CSN792 CSN399 2017-12-07 06:16:00 36985 472 84.4560733414975 -171.309657691706
CSN792 CSN399 2017-12-07 06:13:59 36985 472 84.4560733414975 -171.309657691706
CSN792 CSN399 2017-12-07 06:11:57 36985 472 84.4560733414975 -171.309657691706
CSN792 CSN399 2017-12-07 06:09:57 36985 472 84.4560733414975 -171.309657691706
CSN792 CSN399 2017-12-07 06:07:56 36985 472 84.4560733414975 -171.309657691706
CSN792 CSN399 2017-12-07 06:05:54 36985 472 84.4560733414975 -171.309657691706
CSN792 CSN399 2017-12-07 06:03:54 36985 472 84.4560733414975 -171.309657691706
CSN792 CSN399 2017-12-07 06:01:53 36985 472 84.4560733414975 -171.309657691706
CSN792 CSN399 2017-12-07 05:59:45 36985 472 84.4560733414975 -171.309657691706
CSN792 CSN399 2017-12-07 05:57:44 36985 472 84.4560733414975 -171.309657691706
CSN792 CSN399 2017-12-07 05:55:42 36985 472 84.4560733414975 -171.309657691706
CSN792 CSN399 2017-12-07 05:53:41 36985 472 84.4560733414975 -171.309657691706
CSN792 CSN399 2017-12-07 05:51:41 36985 472 84.4560733414975 -171.309657691706
CSN792 CSN399 2017-12-07 05:49:39 36985 472 84.4560733414975 -171.309657691706
CSN792 CSN399 2017-12-07 05:47:39 36985 472 84.4560733414975 -171.309657691706
CSN792 CSN399 2017-12-07 05:45:37 36985 472 84.4560733414975 -171.309657691706
CSN792 CSN399 2017-12-07 05:43:37 36985 472 84.4560733414975 -171.309657691706
CSN792 CSN399 2017-12-07 05:41:35 36985 472 84.4560733414975 -171.309657691706
CSN792 CSN399 2017-12-07 05:39:35 36985 472 84.4560733414975 -171.309657691706
CSN792 CSN399 2017-12-07 05:37:34 36985 472 84.4560733414975 -171.309657691706
CSN792 CSN399 2017-12-07 05:35:32 36985 472 84.4560733414975 -171.309657691706
CSN792 CSN399 2017-12-07 05:33:31 36985 472 84.4560733414975 -171.309657691706
CSN792 CSN399 2017-12-07 05:31:30 36985 472 84.4560733414975 -171.309657691706
CSN792 CSN399 2017-12-07 05:29:29 36985 472 84.4560733414975 -171.309657691706
CSN792 CSN399 2017-12-07 05:27:28 36985 472 84.4560733414975 -171.309657691706
CSN792 CSN399 2017-12-07 05:25:27 36985 472 84.4560733414975 -171.309657691706
CSN792 CSN399 2017-12-07 05:23:26 36985 472 84.4560733414975 -171.309657691706
CSN792 CSN399 2017-12-07 05:21:26 36985 472 84.4560733414975 -171.309657691706
CSN792 CSN399 2017-12-07 05:19:24 36985 472 84.4560733414975 -171.309657691706
CSN792 CSN399 2017-12-07 05:17:23 36985 472 84.4560733414975 -171.309657691706
CSN792 CSN399 2017-12-07 05:15:23 36985 472 84.4560733414975 -171.309657691706
CSN792 CSN399 2017-12-07 05:13:21 36985 472 84.4560733414975 -171.309657691706
CSN792 CSN399 2017-12-07 05:11:20 36985 472 84.4560733414975 -171.309657691706
CSN792 CSN399 2017-12-07 05:09:19 36985 472 84.4560733414975 -171.309657691706
CSN792 CSN399 2017-12-07 05:07:18 36985 472 84.4560733414975 -171.309657691706
CSN792 CSN399 2017-12-07 05:04:55 36965 472 84.3972720545303 -173.671786142121
CSN792 CSN399 2017-12-07 05:02:54 36965 470 84.3203064867939 -176.236637931155
CSN792 CSN399 2017-12-07 05:00:54 36926 468 84.2321824131349 -178.727865932472
CSN792 CSN399 2017-12-07 04:58:52 36860 468 84.1334625089986 178.868965368675
CSN792 CSN399 2017-12-07 04:56:51 36798 468 84.0246886004824 176.557160735284
CSN792 CSN399 2017-12-07 04:54:50 36870 468 83.9058125772257 174.325825432927
CSN792 CSN399 2017-12-07 04:52:49 36959 468 83.7778909607072 172.184484773802
CSN792 CSN399 2017-12-07 04:50:48 36965 467 83.6428470479447 170.135879314236
CSN792 CSN399 2017-12-07 04:48:47 36969 467 83.5002846656935 168.170001303953
CSN792 CSN399 2017-12-07 04:46:46 36955 467 83.3506267262413 166.290492280291
CSN792 CSN399 2017-12-07 04:44:45 36995 467 83.1941918690502 164.499276862452
CSN792 CSN399 2017-12-07 04:42:44 36991 467 83.03069623818 162.79035696583
CSN792 CSN399 2017-12-07 04:40:43 36985 467 82.8612164602973 161.158813419317
CSN792 CSN399 2017-12-07 04:38:42 36998 468 82.6870083871135 159.599088360456
CSN792 CSN399 2017-12-07 04:36:41 36998 468 82.5082811481839 158.114244943991
CSN792 CSN399 2017-12-07 04:34:40 36991 467 82.3240876347291 156.699018877554
CSN792 CSN399 2017-12-07 04:32:39 36972 467 82.1350815423556 155.354749829008
CSN792 CSN399 2017-12-07 04:30:38 37080 468 81.9422539368582 154.073320004365
CSN792 CSN399 2017-12-07 04:28:37 37077 468 81.7453652693211 152.847888158598
CSN792 CSN399 2017-12-07 04:26:36 37077 468 81.5453766015261 151.67937439072
CSN792 CSN399 2017-12-07 04:24:35 37152 468 81.3424368010892 150.565064774325
CSN792 CSN399 2017-12-07 04:22:34 37152 468 81.1359652880465 149.498753895655
CSN792 CSN399 2017-12-07 04:20:33 37182 468 80.9267583289712 148.478271778644
CSN792 CSN399 2017-12-07 04:18:32 37182 468 80.7148594594948 147.503579682728
CSN792 CSN399 2017-12-07 04:16:31 37178 468 80.4997452006886 146.577063744155
CSN792 CSN399 2017-12-07 04:14:30 37172 470 80.2820644459633 145.689062670251
CSN792 CSN399 2017-12-07 04:12:29 37159 470 80.0622764712714 144.838055970612
CSN792 CSN399 2017-12-07 04:10:28 37159 470 79.8402209274838 144.023542081048
CSN792 CSN399 2017-12-07 04:08:27 37159 470 79.6145467379271 143.251461567719
CSN792 CSN399 2017-12-07 04:06:26 37165 470 79.3874019766891 142.510035372083
CSN792 CSN399 2017-12-07 04:04:25 37165 472 79.1589763320533 141.799254971906
CSN792 CSN399 2017-12-07 04:02:24 37162 472 78.928155710213 141.115035752388
CSN792 CSN399 2017-12-07 04:00:23 37162 472 78.6965753820738 140.453490545086
CSN792 CSN399 2017-12-07 03:58:22 37162 474 78.463247099745 139.81472384155
CSN792 CSN399 2017-12-07 03:56:21 37162 474 78.2272869919594 139.203086465197
CSN792 CSN399 2017-12-07 03:54:20 37159 476 77.9899053970309 138.616693447206
CSN792 CSN399 2017-12-07 03:52:19 37159 476 77.751722886994 138.047307381503
CSN792 CSN399 2017-12-07 03:50:18 37159 478 77.5103876669233 137.506950182376
CSN792 CSN399 2017-12-07 03:48:17 37156 478 77.2680985406893 136.982236615033
CSN792 CSN399 2017-12-07 03:46:16 37156 478 77.0251347553993 136.472601627298
CSN792 CSN399 2017-12-07 03:44:15 37156 480 76.7811125248622 135.976739673287
CSN792 CSN399 2017-12-07 03:42:14 37156 482 76.5335484516384 135.506096091563
CSN792 CSN399 2017-12-07 03:40:13 37156 482 76.2852280222216 135.051551563667
CSN792 CSN399 2017-12-07 03:38:12 37136 482 76.0370228347369 134.609810832597
CSN792 CSN399 2017-12-07 03:36:11 37133 480 75.7879709601178 134.178362766499
CSN792 CSN399 2017-12-07 03:34:10 37133 478 75.5395115772097 133.765488175962
CSN792 CSN399 2017-12-07 03:32:09 37133 478 75.2897319891659 133.373608344768
CSN792 CSN399 2017-12-07 03:30:08 37133 478 75.0394136431895 132.989993178789
CSN792 CSN399 2017-12-07 03:28:07 37133 478 74.7889060318263 132.614760866686
CSN792 CSN399 2017-12-07 03:26:06 37133 480 74.5374595380811 132.256148993704
CSN792 CSN399 2017-12-07 03:24:05 37133 482 74.2840679716315 131.907336570859
CSN792 CSN399 2017-12-07 03:22:04 37136 482 74.0299072232809 131.566245429364
CSN792 CSN399 2017-12-07 03:20:03 37136 482 73.7755331336951 131.231617331534
CSN792 CSN399 2017-12-07 03:18:02 37149 482 73.5203639679642 130.913284738702
CSN792 CSN399 2017-12-07 03:16:01 37149 482 73.2648047429367 130.601467363317
CSN792 CSN399 2017-12-07 03:14:00 37165 482 73.0085448824873 130.298371441404
CSN792 CSN399 2017-12-07 03:11:59 37165 484 72.7515304296994 130.009000651334
CSN792 CSN399 2017-12-07 03:09:58 37136 484 72.4931597174047 129.724503461924
CSN792 CSN399 2017-12-07 03:07:57 37149 484 72.2336212394616 129.452993184423
CSN792 CSN399 2017-12-07 03:05:56 37152 486 71.9731579770168 129.197730557844
CSN792 CSN399 2017-12-07 03:03:55 37152 482 71.7141040928345 128.929532019143
CSN792 CSN399 2017-12-07 03:01:54 37159 482 71.4710245643224 128.553688737174
CSN792 CSN399 2017-12-07 02:59:53 37159 482 71.2281615654138 128.184929581986
CSN792 CSN399 2017-12-07 02:57:52 37162 484 70.9832274050982 127.825492194937
CSN792 CSN399 2017-12-07 02:55:51 37149 484 70.737482262677 127.471893266824
CSN792 CSN399 2017-12-07 02:53:50 37133 486 70.4858699757662 127.156663476824
CSN792 CSN399 2017-12-07 02:51:49 37136 486 70.2340197337765 126.849901967048
CSN792 CSN399 2017-12-07 02:49:48 37139 486 69.9804641566682 126.553245918968
CSN792 CSN399 2017-12-07 02:47:47 37142 486 69.7267104630701 126.262203925577
CSN792 CSN399 2017-12-07 02:45:46 37142 486 69.4728508158281 125.978692573073
CSN792 CSN399 2017-12-07 02:43:45 37146 486 69.2179985468938 125.699579983398
CSN792 CSN399 2017-12-07 02:41:44 37149 488 68.9621971031804 125.428092782802
CSN792 CSN399 2017-12-07 02:39:43 37152 488 68.706393207196 125.160165697527
CSN792 CSN399 2017-12-07 02:37:42 37152 488 68.4488924054864 124.902998041433
CSN792 CSN399 2017-12-07 02:35:41 37156 488 68.1915346899557 124.648225475071
CSN792 CSN399 2017-12-07 02:33:40 37159 488 67.9345052613207 124.398213700292
CSN792 CSN399 2017-12-07 02:31:39 37159 488 67.6770754331698 124.151510967575
CSN792 CSN399 2017-12-07 02:29:38 37162 486 67.418912062504 123.915952489427
CSN792 CSN399 2017-12-07 02:27:37 37162 486 67.1607714810802 123.684739540653
CSN792 CSN399 2017-12-07 02:25:36 37165 486 66.9030821639734 123.459993501912
CSN792 CSN399 2017-12-07 02:23:35 37165 486 66.6399007921281 123.280312286238
CSN792 CSN399 2017-12-07 02:21:34 37169 486 66.3747219364478 123.12308778652
CSN792 CSN399 2017-12-07 02:19:33 37169 484 66.109547401711 122.976840507794
CSN792 CSN399 2017-12-07 02:17:32 37169 482 65.8450316764364 122.835406145225
CSN792 CSN399 2017-12-07 02:15:31 37172 482 65.5809710417028 122.694696161371
CSN792 CSN399 2017-12-07 02:13:30 37172 480 65.3175932299146 122.555955510073
CSN792 CSN399 2017-12-07 02:11:29 37172 480 65.0537475783729 122.420324184079
CSN792 CSN399 2017-12-07 02:09:28 37175 480 64.7897161807861 122.289887792493
CSN792 CSN399 2017-12-07 02:07:27 37178 480 64.5265899969869 122.158992274868
CSN792 CSN399 2017-12-07 02:05:26 37175 476 64.2639148303424 122.028711752033
CSN792 CSN399 2017-12-07 02:03:25 37175 474 64.0032508318051 121.901772326787
CSN792 CSN399 2017-12-07 02:01:24 37175 472 63.7422528899856 121.783887500029
CSN792 CSN399 2017-12-07 01:59:23 37175 472 63.482051852927 121.672121631704
CSN792 CSN399 2017-12-07 01:57:22 37175 470 63.2218803647658 121.561818454124
CSN792 CSN399 2017-12-07 01:55:22 37175 468 62.94995586319 121.446745696251
CSN792 CSN399 2017-12-07 01:53:14 37172 468 62.6910768151229 121.339934762101
CSN792 CSN399 2017-12-07 01:51:13 37172 468 62.432439184194 121.236245245157
CSN792 CSN399 2017-12-07 01:49:12 37192 467 62.1745154247389 121.134901471527
CSN792 CSN399 2017-12-07 01:47:11 37192 465 61.9173247011153 121.033614679441
CSN792 CSN399 2017-12-07 01:45:10 37192 465 61.6605930820328 120.93518685796
CSN792 CSN399 2017-12-07 01:43:09 37188 465 61.404683245402 120.83679396146
CSN792 CSN399 2017-12-07 01:41:08 37198 465 61.1483979775665 120.740049915832
CSN792 CSN399 2017-12-07 01:39:07 37198 465 60.8919987904771 120.646079766388
CSN792 CSN399 2017-12-07 01:37:06 37198 463 60.6357441708475 120.55773072961
CSN792 CSN399 2017-12-07 01:35:05 37195 467 60.3800127928497 120.466077707903
CSN792 CSN399 2017-12-07 01:33:04 37198 467 60.1325145714596 120.293598164645
CSN792 CSN399 2017-12-07 01:31:03 37195 465 59.8861933005579 120.124781768591
CSN792 CSN399 2017-12-07 01:29:02 37195 465 59.6401145383349 119.956131656774
CSN792 CSN399 2017-12-07 01:27:01 37192 463 59.3936141723712 119.792528459241
CSN792 CSN399 2017-12-07 01:25:00 37188 463 59.1473704935018 119.630598919437
CSN792 CSN399 2017-12-07 01:22:59 37192 463 58.9016545245789 119.47163967154
CSN792 CSN399 2017-12-07 01:20:58 37188 461 58.6555213268437 119.313874732993
CSN792 CSN399 2017-12-07 01:18:57 37185 461 58.409119365985 119.161298170864
CSN792 CSN399 2017-12-07 01:16:56 37182 461 58.1632893175403 119.010940188131
CSN792 CSN399 2017-12-07 01:14:55 37188 457 57.9179089173276 118.864099690958
CSN792 CSN399 2017-12-07 01:12:54 37185 457 57.6731910831652 118.718834489119
CSN792 CSN399 2017-12-07 01:10:53 37165 457 57.4290717481218 118.576215334587
CSN792 CSN399 2017-12-07 01:08:52 37159 455 57.1849303991037 118.435074226364
CSN792 CSN399 2017-12-07 01:06:51 37156 453 56.9412245895335 118.295401969089
CSN792 CSN399 2017-12-07 01:04:50 37152 451 56.6946953443073 118.189947584219
CSN792 CSN399 2017-12-07 01:02:49 37146 449 56.4481015111998 118.085994612431
CSN792 CSN399 2017-12-07 01:00:48 37142 445 56.2034780019749 117.983399286251
CSN792 CSN399 2017-12-07 00:58:47 37136 445 55.9602029236652 117.882467048426
CSN792 CSN399 2017-12-07 00:56:46 37133 443 55.7174441362427 117.784646845253
CSN792 CSN399 2017-12-07 00:54:45 37126 441 55.4751989416383 117.687788266817
CSN792 CSN399 2017-12-07 00:52:44 37119 439 55.2340641078914 117.592679466186
CSN792 CSN399 2017-12-07 00:50:43 37113 437 54.9943320184001 117.498507115137
CSN792 CSN399 2017-12-07 00:48:42 37106 435 54.754997829422 117.407194638575
CSN792 CSN399 2017-12-07 00:46:41 37103 433 54.516352768901 117.316891116674
CSN792 CSN399 2017-12-07 00:44:40 37116 433 54.2788320756406 117.2270982403
CSN792 CSN399 2017-12-07 00:42:39 37110 428 54.0420605434537 117.140885188313
CSN792 CSN399 2017-12-07 00:40:38 37106 424 53.8085714644695 117.055300235027
CSN792 CSN399 2017-12-07 00:38:37 37100 424 53.5765376053219 116.970524281523
CSN792 CSN399 2017-12-07 00:36:36 37096 422 53.3446252290012 116.884942449916
CSN792 CSN399 2017-12-07 00:34:35 37090 422 53.1129591020741 116.802276067352
CSN792 CSN399 2017-12-07 00:32:34 37103 420 52.8815725155876 116.721699542664
CSN792 CSN399 2017-12-07 00:30:33 37096 420 52.6509630527712 116.643346224275
CSN792 CSN399 2017-12-07 00:28:32 37093 418 52.4205008884759 116.565005936165
CSN792 CSN399 2017-12-07 00:26:31 37093 416 52.190675196902 116.487068789085
CSN792 CSN399 2017-12-07 00:24:30 37093 408 51.9644463532861 116.410293287049
CSN792 CSN399 2017-12-07 00:22:29 37093 408 51.7403030742429 116.334237882883
CSN792 CSN399 2017-12-07 00:20:28 37093 406 51.5160091119952 116.260812442191
CSN792 CSN399 2017-12-07 00:18:27 37093 408 51.2920513966203 116.186491247742
CSN792 CSN399 2017-12-07 00:16:26 37096 408 51.0674311301566 116.112476667084
CSN792 CSN399 2017-12-07 00:14:25 37116 408 50.8425072971375 116.042555420721
CSN792 CSN399 2017-12-07 00:12:24 37123 404 50.619339515244 115.972509573978
CSN792 CSN399 2017-12-07 00:10:23 37129 404 50.3962647999065 115.902202476921
CSN792 CSN399 2017-12-07 00:08:22 37139 404 50.1731532707852 115.832627791983
CSN792 CSN399 2017-12-07 00:06:21 37149 406 49.9493006972806 115.774511395741
CSN792 CSN399 2017-12-07 00:04:20 37162 412 49.7345469913133 115.646772896475
CSN792 CSN399 2017-12-07 00:02:19 37172 412 49.5200144283964 115.513778654802
CSN792 CSN399 2017-12-07 00:00:18 37185 414 49.3045999131498 115.381629021399
CSN792 CSN399 2017-12-06 23:58:17 37198 414 49.0890500709921 115.24953876206
CSN792 CSN399 2017-12-06 23:56:16 37211 416 48.8723400569529 115.118338226746
CSN792 CSN399 2017-12-06 23:54:15 37224 416 48.6553296399453 114.986043740414
CSN792 CSN399 2017-12-06 23:52:14 37238 416 48.4382474607377 114.856821429006
CSN792 CSN399 2017-12-06 23:50:13 37251 416 48.221132345 114.726238779047
CSN792 CSN399 2017-12-06 23:48:12 37224 416 47.9991567736454 114.618540441324
CSN792 CSN399 2017-12-06 23:46:11 37241 418 47.7757008411005 114.517250686986
CSN792 CSN399 2017-12-06 23:44:10 37267 418 47.5509982491206 114.417142666858
CSN792 CSN399 2017-12-06 23:42:09 37280 420 47.3256210853437 114.318873445975
CSN792 CSN399 2017-12-06 23:40:08 37297 422 47.0992295358558 114.220220784865
CSN792 CSN399 2017-12-06 23:38:07 37310 424 46.8724053751482 114.120867264085
CSN792 CSN399 2017-12-06 23:36:06 37323 428 46.6439519644647 114.020634230977
CSN792 CSN399 2017-12-06 23:34:05 37336 430 46.4130994679936 113.9225018289
CSN792 CSN399 2017-12-06 23:32:04 37359 430 46.1817698138239 113.825810673028
CSN792 CSN399 2017-12-06 23:30:03 37372 432 45.9499039104583 113.728574160048
CSN792 CSN399 2017-12-06 23:28:02 37382 432 45.7172824154117 113.630722845431
CSN792 CSN399 2017-12-06 23:26:01 37395 433 45.484454320128 113.53259455148
CSN792 CSN399 2017-12-06 23:24:00 37405 437 45.2497678403226 113.433745629466
CSN792 CSN399 2017-12-06 23:21:59 37425 441 45.0140291021539 113.330864653353
CSN792 CSN399 2017-12-06 23:19:58 37441 439 44.7744291013133 113.249749211381
CSN792 CSN399 2017-12-06 23:17:57 37448 441 44.5277044801221 113.241671494995
CSN792 CSN399 2017-12-06 23:15:56 37454 441 44.2798431824059 113.232678021452
CSN792 CSN399 2017-12-06 23:13:55 37474 443 44.0311136774882 113.22353537729
CSN792 CSN399 2017-12-06 23:11:54 37480 443 43.782150486515 113.215467214837
CSN792 CSN399 2017-12-06 23:09:53 37484 445 43.5327469012951 113.208311412481
CSN792 CSN399 2017-12-06 23:07:52 37490 445 43.2831968183019 113.198979932977
CSN792 CSN399 2017-12-06 23:05:51 37493 445 43.0337629154112 113.190823565297
CSN792 CSN399 2017-12-06 23:03:50 37497 447 42.783217381098 113.18302775379
CSN792 CSN399 2017-12-06 23:01:49 37500 447 42.5322647549755 113.175394769661
CSN792 CSN399 2017-12-06 22:59:48 37503 445 42.2819945126596 113.175892832462
CSN792 CSN399 2017-12-06 22:57:47 37510 443 42.0328635123648 113.194313299471
CSN792 CSN399 2017-12-06 22:55:46 37513 492 41.7945912348719 113.097608893678
CSN792 CSN399 2017-12-06 22:53:45 37516 492 41.5845885523046 112.85875332295
CSN792 CSN399 2017-12-06 22:51:44 37516 492 41.3747153214411 112.620860559644
CSN792 CSN399 2017-12-06 22:49:43 37520 490 41.1623009732261 112.388767267034
CSN792 CSN399 2017-12-06 22:47:42 37520 492 40.9516235249817 112.152535809014
CSN792 CSN399 2017-12-06 22:45:41 37520 459 40.7465207827176 111.907136471555
CSN792 CSN399 2017-12-06 22:43:41 37520 418 40.5028527112975 111.861061970845
CSN792 CSN399 2017-12-06 22:41:39 37516 418 40.2759122790787 111.938743965361
CSN792 CSN399 2017-12-06 22:39:38 37510 418 40.0477247479486 112.01725938611
CSN792 CSN399 2017-12-06 22:37:37 37503 416 39.8215312434916 112.094112908796
CSN792 CSN399 2017-12-06 22:35:36 37497 416 39.5955319973799 112.171203408294
CSN792 CSN399 2017-12-06 22:33:35 37484 422 39.364926083669 112.233029632348
CSN792 CSN399 2017-12-06 22:31:34 37474 422 39.1326947599858 112.290408481234
CSN792 CSN399 2017-12-06 22:29:33 37461 422 38.9003207898411 112.346260100964
CSN792 CSN399 2017-12-06 22:27:32 37451 420 38.6685287383693 112.402131975556
CSN792 CSN399 2017-12-06 22:25:31 37444 420 38.4358421765994 112.455815256279
CSN792 CSN399 2017-12-06 22:23:30 37441 418 38.2038978052616 112.509661103655
CSN792 CSN399 2017-12-06 22:21:29 37434 412 37.9747758668747 112.56377882248
CSN792 CSN399 2017-12-06 22:19:28 37434 406 37.7487358634153 112.619921299189
CSN792 CSN399 2017-12-06 22:17:27 37438 406 37.5282492782215 112.693314002154
CSN792 CSN399 2017-12-06 22:15:26 37467 406 37.3075239674863 112.767225066151
CSN792 CSN399 2017-12-06 22:13:25 37467 406 37.0866010093046 112.839440970995
CSN792 CSN399 2017-12-06 22:11:24 37467 406 36.8660622659666 112.912798470768
CSN792 CSN399 2017-12-06 22:09:23 37467 406 36.6455089355899 112.984964444034
CSN792 CSN399 2017-12-06 22:07:22 37467 406 36.4250397434665 113.055028076744
CSN792 CSN399 2017-12-06 22:05:21 37464 397 36.207604631302 113.131289145608
CSN792 CSN399 2017-12-06 22:03:20 37457 391 35.9995104116863 113.224760302456
CSN792 CSN399 2017-12-06 22:01:19 37454 391 35.7929938557908 113.317250157615
CSN792 CSN399 2017-12-06 21:59:18 37448 391 35.5864916469992 113.409557745182
CSN792 CSN399 2017-12-06 21:57:17 37441 391 35.3803280014775 113.501049347414
CSN792 CSN399 2017-12-06 21:55:16 37438 387 35.1752310854273 113.59251109899
CSN792 CSN399 2017-12-06 21:53:16 37434 385 34.968054023464 113.687724689123
CSN792 CSN399 2017-12-06 21:51:12 37434 389 34.7595050531168 113.764417833491
CSN792 CSN399 2017-12-06 21:49:11 37434 389 34.5493553554377 113.833581235359
CSN792 CSN399 2017-12-06 21:47:09 37434 387 34.3385592280516 113.899569774011
CSN792 CSN399 2017-12-06 21:45:08 37444 387 34.1283442491056 113.965452773288
CSN792 CSN399 2017-12-06 21:43:07 37428 387 33.9181171186947 114.03104448916
CSN792 CSN399 2017-12-06 21:41:06 37425 387 33.7078420623998 114.096469216609
CSN792 CSN399 2017-12-06 21:39:05 37415 387 33.4972803578588 114.162078190759
CSN792 CSN399 2017-12-06 21:37:04 37405 389 33.2864549705482 114.227692723837
CSN792 CSN399 2017-12-06 21:35:03 37398 391 33.0747233017542 114.29392324394
CSN792 CSN399 2017-12-06 21:33:02 37388 391 32.8626023808927 114.361599246608
CSN792 CSN399 2017-12-06 21:31:01 37382 389 32.6519250581382 114.432307886535
CSN792 CSN399 2017-12-06 21:29:00 37375 391 32.4434872546898 114.506964299537
CSN792 CSN399 2017-12-06 21:26:59 37369 426 32.2122744076823 114.514009719342
CSN792 CSN399 2017-12-06 21:24:58 37362 424 31.9745136599725 114.491814035973
CSN792 CSN399 2017-12-06 21:22:57 37349 418 31.7379339328057 114.46929458795
CSN792 CSN399 2017-12-06 21:20:57 37362 412 31.4710494095659 114.453488505418
CSN792 CSN399 2017-12-06 21:18:39 37352 474 31.2306093770118 114.379879912707
CSN792 CSN399 2017-12-06 21:16:38 37352 476 30.9882571034307 114.251763886059
CSN792 CSN399 2017-12-06 21:14:37 37346 478 30.7444067046917 114.124499370308
CSN792 CSN399 2017-12-06 21:12:36 37346 490 30.4974967063971 113.993825899951
CSN792 CSN399 2017-12-06 21:10:35 37346 494 30.2480774857811 113.859012074944
CSN792 CSN399 2017-12-06 21:08:34 37343 486 29.998112521321 113.72387118591
CSN792 CSN399 2017-12-06 21:06:33 37339 447 29.7463090470039 113.6789478786
CSN792 CSN399 2017-12-06 21:04:32 37333 447 29.496524296709 113.658495000277
CSN792 CSN399 2017-12-06 21:02:31 37329 447 29.246052919745 113.639054192655
CSN792 CSN399 2017-12-06 21:00:30 37320 447 28.9953132862465 113.619214067526
CSN792 CSN399 2017-12-06 20:58:29 37316 447 28.745237313328 113.599278040008
CSN792 CSN399 2017-12-06 20:56:28 37316 447 28.494924751873 113.582495153321
CSN792 CSN399 2017-12-06 20:54:27 37316 445 28.2447522245794 113.566254089255
CSN792 CSN399 2017-12-06 20:52:26 37316 447 27.9940815159327 113.546894629829
CSN792 CSN399 2017-12-06 20:50:25 37313 449 27.7432540563059 113.523270453428
CSN792 CSN399 2017-12-06 20:48:24 37313 445 27.4932178932632 113.511751551147
CSN792 CSN399 2017-12-06 20:46:23 37310 445 27.2434149212518 113.503657382446
CSN792 CSN399 2017-12-06 20:44:22 37300 447 26.9933374310441 113.496265179622
CSN792 CSN399 2017-12-06 20:42:21 37293 449 26.7419067484018 113.48736471781
CSN792 CSN399 2017-12-06 20:40:20 37283 449 26.490143648284 113.480490246564
CSN792 CSN399 2017-12-06 20:38:19 37274 449 26.2381157585102 113.473546997975
CSN792 CSN399 2017-12-06 20:36:18 37260 451 25.9849375024067 113.466549477384
CSN792 CSN399 2017-12-06 20:34:17 37251 453 25.7312698374787 113.459025486576
CSN792 CSN399 2017-12-06 20:32:16 37241 451 25.4774797354893 113.451174800743
CSN792 CSN399 2017-12-06 20:30:15 37228 424 25.2300949257214 113.444025699874
CSN792 CSN399 2017-12-06 20:28:14 35633 416 24.9958355830839 113.437050100283
CSN792 CSN399 2017-12-06 20:26:13 33622 412 24.7633971992907 113.4282515152
CSN792 CSN399 2017-12-06 20:24:12 31594 402 24.5340736097741 113.419158300651
CSN792 CSN399 2017-12-06 20:22:11 28885 404 24.3084924762504 113.409108247295
CSN792 CSN399 2017-12-06 20:20:10 25272 398 24.087105382317 113.444517117612
CSN792 CSN399 2017-12-06 20:18:09 21650 387 23.8734972495163 113.505082540171
CSN792 CSN399 2017-12-06 20:16:08 18002 363 23.6678681215579 113.559361652865
CSN792 CSN399 2017-12-06 20:14:07 14327 321 23.4825028642223 113.619654164547
CSN792 CSN399 2017-12-06 20:12:06 10640 299 23.342318419718 113.622793492524
CSN792 CSN399 2017-12-06 20:10:05 6942 259 23.2629883575608 113.477562002766
CSN792 CSN399 2017-12-06 20:08:04 3258 237 23.2654628527729 113.330615082758
CSN792 CSN399 2017-12-06 20:06:03 82 192 23.377604475932 113.303063923959
CSN792 CSN399 2017-12-06 20:04:02 0 8 23.4062376150677 113.308550111033
CSN792 CSN399 2017-12-06 20:02:01 0 16 23.395251931621 113.305693257164
CSN792 CSN399 2017-12-06 20:00:00 0 29 23.383229481751 113.302425233034
CSN792 CSN399 2017-12-06 19:57:59 0 2 23.3809547536061 113.296217699345
CSN792 CSN399 2017-12-06 19:55:58 0 2 23.3814879983603 113.29558673682
CSN792 CSN399 2017-12-06 19:53:57 0 0 23.3817833000524 113.296708831973
CSN792 CSN399 2017-12-06 19:51:56 0 0 23.3817833000982 113.296708832026
CSN792 CSN399 2017-12-06 19:49:53 0 0 23.3817833000982 113.296708832026